RJNA(METAR)
10/21 04:00
METAR RJNA 201900Z 33003KT 9999 FEW030 11/09 Q1024 RMK 1CU030 A3026=
戻る
トップページへ戻る
IMOC Co,.Ltd.